Time;durP1;ratioP1;P1;durP2;ratioP2;P2;SDS_P1;SDS_P2;PMS_P1;PMS_P2;Temp;Humidity;BMP_temperature;BMP_pressure;BME280_temperature;BME280_humidity;BME280_pressure;Samples;Min_cycle;Max_cycle;Signal;HPM_P1;HPM_P2
2022/08/04 00:02:01;;;;;;;36.03;16.80;;;20.10;99.90;;;;;;7400051;19;20022;-84
2022/08/04 00:04:36;;;;;;;35.78;18.00;;;20.00;99.90;;;;;;7398169;19;20015;-83
2022/08/04 00:07:10;;;;;;;35.15;18.02;;;19.90;99.90;;;;;;7396011;19;20021;-84
2022/08/04 00:09:42;;;;;;;33.45;17.13;;;19.90;99.90;;;;;;7394389;19;20014;-84
2022/08/04 00:12:10;;;;;;;33.72;15.70;;;19.90;99.90;;;;;;7398987;19;20482;-84
2022/08/04 00:14:45;;;;;;;33.35;17.17;;;19.90;99.90;;;;;;7397770;19;20014;-84
2022/08/04 00:17:13;;;;;;;31.73;17.73;;;19.90;99.90;;;;;;7393560;19;20428;-84
2022/08/04 00:19:47;;;;;;;39.20;17.10;;;19.90;99.90;;;;;;7396907;19;20021;-83
2022/08/04 00:22:18;;;;;;;33.67;18.42;;;19.80;99.90;;;;;;7393279;19;20056;-84
2022/08/04 00:24:45;;;;;;;42.33;17.73;;;19.80;99.90;;;;;;7396926;19;20019;-84
2022/08/04 00:27:12;;;;;;;42.28;18.20;;;19.80;99.90;;;;;;7396977;19;20592;-84
2022/08/04 00:29:38;;;;;;;36.85;18.80;;;19.70;99.90;;;;;;7393181;19;20401;-85
2022/08/04 00:32:06;;;;;;;35.08;18.67;;;19.70;99.90;;;;;;7393467;19;20018;-84
2022/08/04 00:34:33;;;;;;;32.40;17.13;;;19.70;99.90;;;;;;7396609;19;20357;-84
2022/08/04 00:36:59;;;;;;;33.78;17.70;;;19.80;99.90;;;;;;7396466;19;20015;-84
2022/08/04 00:39:26;;;;;;;36.22;17.98;;;19.80;99.90;;;;;;7393285;19;20011;-84
2022/08/04 00:41:59;;;;;;;34.33;17.48;;;19.80;99.90;;;;;;7397022;19;20011;-84
2022/08/04 00:44:37;;;;;;;26.48;14.90;;;19.80;99.90;;;;;;7397835;19;20070;-84
2022/08/04 00:47:27;;;;;;;18.33;9.45;;;19.80;99.90;;;;;;7395371;19;20015;-84
2022/08/04 00:50:13;;;;;;;36.03;17.52;;;19.80;99.90;;;;;;7394795;19;20015;-84
2022/08/04 00:52:55;;;;;;;37.28;17.60;;;19.90;99.90;;;;;;7393651;19;20550;-85
2022/08/04 00:55:26;;;;;;;25.00;13.25;;;19.90;99.90;;;;;;7396862;19;20037;-85
2022/08/04 00:58:01;;;;;;;35.90;18.23;;;19.80;99.90;;;;;;7390514;19;20015;-85
2022/08/04 01:00:30;;;;;;;34.88;18.33;;;19.80;99.90;;;;;;7398011;19;20434;-85
2022/08/04 01:03:15;;;;;;;36.25;19.38;;;19.80;99.90;;;;;;7394619;19;20018;-85
2022/08/04 01:06:06;;;;;;;38.58;19.05;;;19.70;99.90;;;;;;7396561;19;20018;-85
2022/08/04 01:08:56;;;;;;;34.03;19.23;;;19.70;99.90;;;;;;7396256;19;20033;-85
2022/08/04 01:12:13;;;;;;;26.63;13.15;;;19.60;99.90;;;;;;7394024;19;20089;-85
2022/08/04 01:14:42;;;;;;;32.30;17.35;;;19.60;99.90;;;;;;7394210;19;20023;-85
2022/08/04 01:17:24;;;;;;;34.63;18.40;;;19.60;99.90;;;;;;7396819;19;20074;-85
2022/08/04 01:20:07;;;;;;;34.15;19.33;;;19.60;99.90;;;;;;7394228;19;20010;-84
2022/08/04 01:22:33;;;;;;;34.33;18.55;;;19.60;99.90;;;;;;7394478;19;20011;-85
2022/08/04 01:25:28;;;;;;;37.90;19.55;;;19.60;99.90;;;;;;7396991;19;20587;-87
2022/08/04 01:28:22;;;;;;;37.05;17.38;;;19.50;99.90;;;;;;7393308;19;20346;-87
2022/08/04 01:30:54;;;;;;;36.28;20.02;;;19.50;99.90;;;;;;7394140;19;20022;-87
2022/08/04 01:33:21;;;;;;;34.90;18.55;;;19.50;99.90;;;;;;7397005;19;20021;-87
2022/08/04 01:35:53;;;;;;;35.30;18.75;;;19.50;99.90;;;;;;7394987;19;20042;-87
2022/08/04 01:38:27;;;;;;;36.40;19.50;;;19.50;99.90;;;;;;7394905;19;20029;-88
2022/08/04 01:40:57;;;;;;;35.75;19.65;;;19.50;99.90;;;;;;7393878;19;20085;-86
2022/08/04 01:43:26;;;;;;;34.63;18.10;;;19.50;99.90;;;;;;7391987;19;20007;-87
2022/08/04 01:45:57;;;;;;;37.75;18.00;;;19.50;99.90;;;;;;7395010;19;20380;-87
2022/08/04 01:48:25;;;;;;;39.40;17.83;;;19.50;99.90;;;;;;7393637;19;20014;-86
2022/08/04 01:50:55;;;;;;;35.95;18.75;;;19.50;99.90;;;;;;7391429;19;20010;-86
2022/08/04 01:53:28;;;;;;;34.92;18.90;;;19.40;99.90;;;;;;7393974;19;20040;-87
2022/08/04 01:55:56;;;;;;;38.05;18.58;;;19.50;99.90;;;;;;7395716;19;20030;-87
2022/08/04 01:58:23;;;;;;;30.83;18.45;;;19.50;99.90;;;;;;7392118;19;20090;-87
2022/08/04 02:01:02;;;;;;;32.63;18.48;;;19.40;99.90;;;;;;7391446;19;20018;-87
2022/08/04 02:03:29;;;;;;;28.23;17.80;;;19.50;99.90;;;;;;7392895;19;20025;-87
2022/08/04 02:06:18;;;;;;;31.63;17.38;;;19.40;99.90;;;;;;7394541;19;20011;-87
2022/08/04 02:08:53;;;;;;;32.35;17.67;;;19.40;99.90;;;;;;7391229;19;20019;-86
2022/08/04 02:11:21;;;;;;;32.50;16.98;;;19.30;99.90;;;;;;7391019;19;20010;-85
2022/08/04 02:14:11;;;;;;;26.92;17.08;;;19.30;99.90;;;;;;7395044;19;20107;-86
2022/08/04 02:16:48;;;;;;;32.28;17.65;;;19.20;99.90;;;;;;7396397;19;20357;-87
2022/08/04 02:19:29;;;;;;;30.70;18.45;;;19.20;99.90;;;;;;7392279;19;20028;-87
2022/08/04 02:22:11;;;;;;;33.70;19.05;;;19.10;99.90;;;;;;7392134;19;20010;-87
2022/08/04 02:24:46;;;;;;;34.97;19.35;;;19.10;99.90;;;;;;7391993;19;20007;-87
2022/08/04 02:27:20;;;;;;;32.75;18.33;;;19.00;99.90;;;;;;7395998;19;20014;-87
2022/08/04 02:29:53;;;;;;;32.67;16.83;;;19.00;99.90;;;;;;7390536;19;20025;-86
2022/08/04 02:32:31;;;;;;;38.47;20.80;;;19.00;99.90;;;;;;7391272;19;20007;-87
2022/08/04 02:35:02;;;;;;;34.78;19.23;;;19.00;99.90;;;;;;7392653;19;20031;-87
2022/08/04 02:37:31;;;;;;;28.63;18.10;;;19.00;99.90;;;;;;7392326;19;20030;-87
2022/08/04 02:39:58;;;;;;;29.45;18.25;;;19.00;99.90;;;;;;7392822;19;20021;-87
2022/08/04 02:42:27;;;;;;;35.35;19.63;;;18.90;99.90;;;;;;7400964;19;20341;-86
2022/08/04 02:44:56;;;;;;;33.20;18.42;;;18.90;99.90;;;;;;7398960;19;20398;-87
2022/08/04 02:47:24;;;;;;;32.20;19.00;;;18.90;99.90;;;;;;7401542;19;20014;-87
2022/08/04 02:49:51;;;;;;;30.95;17.63;;;18.80;99.90;;;;;;7396882;19;20514;-87
2022/08/04 02:52:18;;;;;;;37.55;21.05;;;18.80;99.90;;;;;;7399930;19;20077;-87
2022/08/04 02:54:47;;;;;;;36.03;19.77;;;18.80;99.90;;;;;;7401649;19;20042;-87
2022/08/04 02:57:16;;;;;;;32.40;19.65;;;18.70;99.90;;;;;;7401189;19;20018;-87
2022/08/04 03:00:06;;;;;;;26.95;18.00;;;18.70;99.90;;;;;;7400294;19;20021;-86
2022/08/04 03:02:50;;;;;;;38.20;20.23;;;18.60;99.90;;;;;;7398803;19;20006;-87
2022/08/04 03:05:20;;;;;;;32.50;19.30;;;18.60;99.90;;;;;;7398693;19;20018;-87
2022/08/04 03:08:00;;;;;;;29.92;18.92;;;18.60;99.90;;;;;;7401278;19;20445;-87
2022/08/04 03:10:46;;;;;;;27.95;18.17;;;18.60;99.90;;;;;;7396163;19;20010;-87
2022/08/04 03:13:36;;;;;;;31.10;19.50;;;18.60;99.90;;;;;;7398733;19;20024;-88
2022/08/04 03:16:35;;;;;;;37.55;21.02;;;18.60;99.90;;;;;;7399291;19;20054;-87
2022/08/04 03:19:37;;;;;;;36.10;21.08;;;18.60;99.90;;;;;;7397437;19;20007;-88
2022/08/04 03:22:38;;;;;;;35.20;21.00;;;18.60;99.90;;;;;;7396918;19;20023;-87
2022/08/04 03:25:41;;;;;;;31.33;19.67;;;18.50;99.90;;;;;;7398723;19;20542;-88
2022/08/04 03:28:42;;;;;;;30.73;20.15;;;18.50;99.90;;;;;;7399010;19;20530;-88
2022/08/04 03:31:33;;;;;;;31.08;19.05;;;18.50;99.90;;;;;;7397541;19;20567;-87
2022/08/04 03:34:35;;;;;;;32.67;19.23;;;18.40;99.90;;;;;;7400257;19;20014;-87
2022/08/04 03:37:23;;;;;;;33.88;18.58;;;18.40;99.90;;;;;;7397582;19;20014;-86
2022/08/04 03:39:54;;;;;;;28.55;18.45;;;18.40;99.90;;;;;;7399128;19;20070;-87
2022/08/04 03:42:35;;;;;;;25.52;15.98;;;18.30;99.90;;;;;;7399690;19;20019;-87
2022/08/04 03:45:10;;;;;;;26.77;17.67;;;18.30;99.90;;;;;;7397245;19;20093;-87
2022/08/04 03:48:01;;;;;;;25.88;16.80;;;18.30;99.90;;;;;;7396864;19;20022;-87
2022/08/04 03:54:44;;;;;;;26.15;17.55;;;18.30;99.90;;;;;;7395602;19;20077;-87
2022/08/04 03:57:31;;;;;;;27.85;17.05;;;18.30;99.90;;;;;;7392937;19;20114;-87
2022/08/04 04:00:08;;;;;;;35.55;22.35;;;18.40;99.90;;;;;;7400112;19;20042;-87
2022/08/04 04:02:58;;;;;;;31.13;19.98;;;18.40;99.90;;;;;;7397453;19;20014;-87
2022/08/04 04:05:45;;;;;;;32.60;19.77;;;18.40;99.90;;;;;;7397513;19;20015;-86
2022/08/04 04:08:28;;;;;;;28.02;18.90;;;18.40;99.90;;;;;;7398920;19;20014;-85
2022/08/04 04:11:31;;;;;;;32.85;19.50;;;18.40;99.90;;;;;;7399373;19;20022;-87
2022/08/04 04:14:16;;;;;;;33.90;21.00;;;18.50;99.90;;;;;;7398438;19;20034;-87
2022/08/04 04:17:07;;;;;;;24.60;15.30;;;18.50;99.90;;;;;;7400197;19;20535;-87
2022/08/04 04:19:46;;;;;;;43.80;22.20;;;18.60;99.90;;;;;;7396137;19;20011;-87
2022/08/04 04:22:44;;;;;;;31.67;19.17;;;18.60;99.90;;;;;;7397060;19;20018;-87
2022/08/04 04:25:44;;;;;;;33.45;20.40;;;18.60;99.90;;;;;;7396646;19;20033;-87
2022/08/04 04:28:32;;;;;;;31.95;20.67;;;18.60;99.90;;;;;;7395278;19;20014;-86
2022/08/04 04:31:17;;;;;;;19.13;13.50;;;18.70;99.90;;;;;;7394794;19;20007;-87
2022/08/04 04:34:13;;;;;;;29.23;20.42;;;18.80;99.90;;;;;;7393640;19;20025;-87
2022/08/04 04:37:08;;;;;;;33.80;21.67;;;18.80;99.90;;;;;;7395698;19;20028;-87
2022/08/04 04:39:52;;;;;;;17.27;10.52;;;18.80;99.90;;;;;;7392947;19;20099;-87
2022/08/04 04:42:46;;;;;;;33.45;22.58;;;18.80;99.90;;;;;;7397541;19;20021;-87
2022/08/04 04:45:27;;;;;;;32.83;21.27;;;19.00;99.90;;;;;;7396805;19;20507;-87
2022/08/04 04:48:10;;;;;;;36.95;21.80;;;19.00;99.90;;;;;;7395494;19;20011;-86
2022/08/04 04:51:15;;;;;;;35.33;23.40;;;19.10;99.90;;;;;;7397688;19;20015;-87
2022/08/04 04:54:04;;;;;;;32.88;21.42;;;19.10;99.90;;;;;;7397121;19;20010;-87
2022/08/04 04:56:43;;;;;;;33.80;20.63;;;19.10;99.90;;;;;;7397225;19;20025;-87
2022/08/04 04:59:20;;;;;;;31.83;22.13;;;19.20;99.90;;;;;;7395499;19;20472;-87
2022/08/04 05:01:49;;;;;;;31.25;22.33;;;19.30;99.90;;;;;;7395909;19;20035;-87
2022/08/04 05:04:41;;;;;;;32.13;20.80;;;19.40;99.90;;;;;;7397486;19;20431;-88
2022/08/04 05:07:15;;;;;;;36.90;22.23;;;19.50;99.90;;;;;;7392668;19;20464;-88
2022/08/04 05:10:04;;;;;;;33.10;21.05;;;19.60;99.90;;;;;;7396642;19;20115;-87
2022/08/04 05:12:39;;;;;;;28.50;19.98;;;19.50;99.90;;;;;;7391109;19;20015;-87
2022/08/04 05:15:09;;;;;;;32.03;21.15;;;19.60;99.90;;;;;;7395108;19;20483;-87
2022/08/04 05:17:39;;;;;;;33.22;19.83;;;19.60;99.90;;;;;;7392284;19;20006;-87
2022/08/04 05:20:08;;;;;;;34.03;20.35;;;19.70;99.90;;;;;;7394003;19;20047;-87
2022/08/04 05:22:49;;;;;;;30.90;20.08;;;19.70;99.90;;;;;;7394214;19;20499;-89
2022/08/04 05:25:14;;;;;;;32.10;18.77;;;19.80;99.90;;;;;;7393618;19;20010;-87
2022/08/04 05:27:47;;;;;;;30.27;19.73;;;19.90;99.90;;;;;;7394915;19;20519;-87
2022/08/04 05:30:13;;;;;;;;;;;20.00;99.90;;;;;;7392911;19;20007;-88
2022/08/04 05:33:03;;;;;;;23.45;14.55;;;20.10;99.90;;;;;;7394354;19;20264;-87
2022/08/04 05:35:35;;;;;;;29.48;18.50;;;20.20;99.90;;;;;;7391099;19;20007;-87
2022/08/04 05:38:02;;;;;;;32.97;18.10;;;20.30;99.90;;;;;;7392011;19;20020;-87
2022/08/04 05:40:29;;;;;;;17.35;10.43;;;20.50;99.90;;;;;;7394375;19;20039;-88
2022/08/04 05:42:56;;;;;;;20.73;12.63;;;20.70;99.90;;;;;;7394858;19;20407;-88
2022/08/04 05:45:22;;;;;;;28.02;18.17;;;20.90;99.90;;;;;;7391350;19;20011;-87
2022/08/04 05:47:51;;;;;;;17.48;11.88;;;21.10;99.90;;;;;;7393866;19;20011;-87
2022/08/04 05:50:18;;;;;;;19.95;14.55;;;21.20;99.90;;;;;;7393015;19;20018;-85
2022/08/04 05:52:45;;;;;;;19.65;13.10;;;21.20;99.90;;;;;;7394524;19;20018;-94
2022/08/04 05:55:12;;;;;;;22.90;14.77;;;21.30;99.90;;;;;;7392570;19;20019;-93
2022/08/04 05:57:40;;;;;;;24.30;15.40;;;21.40;99.90;;;;;;7397070;19;20014;-88
2022/08/04 06:00:07;;;;;;;16.95;7.85;;;21.40;99.90;;;;;;7395819;19;20007;-91
2022/08/04 06:02:37;;;;;;;28.02;14.88;;;21.50;99.90;;;;;;7406215;19;20018;-84
2022/08/04 06:05:06;;;;;;;25.80;16.83;;;21.60;99.90;;;;;;7397180;19;20078;-85
2022/08/04 06:07:32;;;;;;;25.02;14.57;;;21.60;99.90;;;;;;7393433;19;20022;-86
2022/08/04 06:09:59;;;;;;;28.60;15.40;;;21.60;99.90;;;;;;7393794;19;20021;-85
2022/08/04 06:12:36;;;;;;;23.75;10.07;;;21.70;99.90;;;;;;7395986;19;20740;-84
2022/08/04 06:15:06;;;;;;;20.15;12.68;;;21.70;99.90;;;;;;7392767;19;20070;-82
2022/08/04 06:17:36;;;;;;;20.33;8.85;;;21.90;99.90;;;;;;7403680;19;20026;-83
2022/08/04 06:20:04;;;;;;;22.52;14.23;;;22.10;99.90;;;;;;7402985;19;20018;-85
2022/08/04 06:22:32;;;;;;;23.70;13.75;;;22.20;99.90;;;;;;7402071;19;20078;-86
2022/08/04 06:25:01;;;;;;;19.77;9.68;;;22.50;99.90;;;;;;7402648;19;20034;-86
2022/08/04 06:27:30;;;;;;;19.70;9.27;;;22.70;99.90;;;;;;7400353;19;20018;-85
2022/08/04 06:29:58;;;;;;;20.85;10.77;;;22.70;99.90;;;;;;7395837;19;20015;-86
2022/08/04 06:32:46;;;;;;;13.60;7.93;;;22.70;99.90;;;;;;7397645;19;20015;-85
2022/08/04 06:35:17;;;;;;;16.20;7.22;;;22.70;99.90;;;;;;7401907;19;20335;-84
2022/08/04 06:37:47;;;;;;;17.40;7.32;;;22.90;99.90;;;;;;7399189;19;20019;-85
2022/08/04 06:40:16;;;;;;;13.88;6.63;;;23.00;99.90;;;;;;7398118;19;20508;-86
2022/08/04 06:42:43;;;;;;;13.73;7.00;;;23.10;99.90;;;;;;7399271;19;20021;-85
2022/08/04 06:45:11;;;;;;;16.25;8.05;;;23.20;99.90;;;;;;7396903;19;20055;-85
2022/08/04 06:47:38;;;;;;;17.23;6.82;;;23.30;99.90;;;;;;7399989;19;20022;-86
2022/08/04 06:50:05;;;;;;;16.52;6.43;;;23.40;99.90;;;;;;7398549;19;20701;-84
2022/08/04 06:52:31;;;;;;;14.82;5.90;;;23.40;99.90;;;;;;7398665;19;20006;-85
2022/08/04 06:54:57;;;;;;;18.65;8.07;;;23.50;99.90;;;;;;7400981;19;20389;-85
2022/08/04 06:57:26;;;;;;;11.15;5.68;;;23.70;99.90;;;;;;7397788;19;20010;-85
2022/08/04 07:00:04;;;;;;;14.50;6.40;;;24.10;99.90;;;;;;7399024;19;20531;-85
2022/08/04 07:02:37;;;;;;;12.32;6.13;;;24.90;99.90;;;;;;7401247;19;20018;-86
2022/08/04 07:05:05;;;;;;;15.15;5.68;;;25.50;99.90;;;;;;7398446;19;20014;-85
2022/08/04 07:07:32;;;;;;;11.40;4.95;;;26.40;99.90;;;;;;7396319;19;20070;-86
2022/08/04 07:10:00;;;;;;;11.40;4.80;;;27.10;99.90;;;;;;7397322;19;20447;-86
2022/08/04 07:12:27;;;;;;;15.15;5.45;;;27.60;99.90;;;;;;7398222;19;20030;-86
2022/08/04 07:14:54;;;;;;;11.85;4.97;;;28.10;99.90;;;;;;7397587;19;20479;-85
2022/08/04 07:17:21;;;;;;;17.25;6.25;;;28.60;99.90;;;;;;7399993;19;20010;-86
2022/08/04 07:19:47;;;;;;;8.95;5.50;;;28.70;99.90;;;;;;7395419;19;20022;-85
2022/08/04 07:22:15;;;;;;;9.77;4.85;;;28.80;99.90;;;;;;7396449;19;20014;-86
2022/08/04 07:24:41;;;;;;;12.32;5.07;;;29.20;99.90;;;;;;7397108;19;20081;-86
2022/08/04 07:27:07;;;;;;;10.93;4.03;;;29.30;99.90;;;;;;7397813;19;20011;-86
2022/08/04 07:29:37;;;;;;;10.38;5.55;;;29.00;99.90;;;;;;7395551;19;20044;-86
2022/08/04 07:32:04;;;;;;;12.13;5.07;;;29.10;99.90;;;;;;7398021;19;20578;-86
2022/08/04 07:34:31;;;;;;;13.25;5.03;;;29.50;99.90;;;;;;7397839;19;20018;-86
2022/08/04 07:36:59;;;;;;;10.90;5.00;;;29.90;99.90;;;;;;7397587;19;20042;-85
2022/08/04 07:39:27;;;;;;;13.27;4.75;;;30.40;99.90;;;;;;7397971;19;20031;-85
2022/08/04 07:41:55;;;;;;;7.25;4.05;;;30.70;99.90;;;;;;7394389;19;20025;-85
2022/08/04 07:44:20;;;;;;;9.43;4.20;;;30.50;99.90;;;;;;7400334;19;20042;-86
2022/08/04 07:46:47;;;;;;;19.35;7.13;;;30.60;99.90;;;;;;7400088;19;20014;-85
2022/08/04 07:49:14;;;;;;;10.25;4.78;;;30.50;99.90;;;;;;7398308;19;20033;-85
2022/08/04 07:51:40;;;;;;;14.25;4.80;;;30.30;99.90;;;;;;7395944;19;20007;-85
2022/08/04 07:54:08;;;;;;;12.77;5.47;;;30.30;99.90;;;;;;7396615;19;20034;-83
2022/08/04 07:56:40;;;;;;;10.30;4.95;;;30.00;99.90;;;;;;7394375;19;20329;-85
2022/08/04 07:59:06;;;;;;;9.38;3.97;;;29.80;99.90;;;;;;7400161;19;20015;-85
2022/08/04 08:01:35;;;;;;;15.88;5.25;;;29.50;99.90;;;;;;7397278;19;20102;-86
2022/08/04 08:04:01;;;;;;;12.43;4.38;;;29.30;99.90;;;;;;7399914;19;20040;-85
2022/08/04 08:06:28;;;;;;;10.35;4.05;;;29.80;99.90;;;;;;7398883;19;20019;-85
2022/08/04 08:08:59;;;;;;;13.23;4.93;;;30.30;99.90;;;;;;7399460;19;20395;-86
2022/08/04 08:11:26;;;;;;;14.25;4.30;;;30.30;99.90;;;;;;7395904;19;20397;-85
2022/08/04 08:13:52;;;;;;;8.55;3.90;;;29.80;99.90;;;;;;7395723;19;20022;-85
2022/08/04 08:16:19;;;;;;;7.93;4.30;;;30.00;99.90;;;;;;7399563;19;20010;-85
2022/08/04 08:18:46;;;;;;;9.20;4.05;;;29.80;99.90;;;;;;7399352;19;20515;-87
2022/08/04 08:21:12;;;;;;;11.07;3.90;;;29.50;99.90;;;;;;7394267;19;20007;-85
2022/08/04 08:23:39;;;;;;;7.65;3.72;;;29.20;99.90;;;;;;7395869;19;20025;-87
2022/08/04 08:26:05;;;;;;;12.68;4.68;;;29.10;99.90;;;;;;7393590;19;20014;-86
2022/08/04 08:28:31;;;;;;;10.93;3.78;;;29.20;99.90;;;;;;7393726;19;20074;-86
2022/08/04 08:30:57;;;;;;;9.20;4.10;;;29.20;99.90;;;;;;7396418;19;20024;-85
2022/08/04 08:33:24;;;;;;;10.27;3.90;;;29.00;99.90;;;;;;7397374;19;20476;-85
2022/08/04 08:36:16;;;;;;;11.75;4.05;;;28.90;99.90;;;;;;7396060;19;20021;-86
2022/08/04 08:38:59;;;;;;;8.43;3.72;;;28.80;99.90;;;;;;7393413;19;20078;-86
2022/08/04 08:42:03;;;;;;;7.47;3.65;;;28.70;99.90;;;;;;7395053;19;20102;-86
2022/08/04 08:44:29;;;;;;;10.90;3.58;;;28.40;99.90;;;;;;7396870;19;20006;-86
2022/08/04 08:47:03;;;;;;;8.90;3.50;;;28.30;99.90;;;;;;7398409;19;20018;-85
2022/08/04 08:50:15;;;;;;;5.45;3.22;;;28.00;99.90;;;;;;7395301;19;20018;-86
2022/08/04 08:53:05;;;;;;;8.18;3.30;;;27.90;99.90;;;;;;7394462;19;20368;-85
2022/08/04 08:55:43;;;;;;;6.15;3.20;;;27.60;99.90;;;;;;7394719;19;20435;-85
2022/08/04 08:58:19;;;;;;;10.38;3.47;;;27.70;99.90;;;;;;7398233;19;20018;-85
2022/08/04 09:01:05;;;;;;;10.30;3.22;;;27.70;99.90;;;;;;7398598;19;20018;-84
2022/08/04 09:03:44;;;;;;;8.80;3.28;;;27.60;99.90;;;;;;7394386;19;20383;-85
2022/08/04 09:06:30;;;;;;;8.27;3.50;;;27.50;99.90;;;;;;7395648;19;20018;-87
2022/08/04 09:09:11;;;;;;;6.30;3.17;;;27.50;99.90;;;;;;7395903;19;20522;-86
2022/08/04 09:11:47;;;;;;;7.97;3.45;;;27.40;99.90;;;;;;7393556;19;20018;-86
2022/08/04 09:14:23;;;;;;;6.45;2.53;;;27.30;99.90;;;;;;7396585;19;20345;-86
2022/08/04 09:16:58;;;;;;;8.70;3.60;;;27.30;99.90;;;;;;7394389;19;20011;-86
2022/08/04 09:19:48;;;;;;;5.43;3.05;;;27.30;99.90;;;;;;7395808;19;20670;-86
2022/08/04 09:22:46;;;;;;;10.00;3.58;;;27.10;99.90;;;;;;7395778;19;20038;-86
2022/08/04 09:25:27;;;;;;;6.28;3.03;;;27.20;99.90;;;;;;7392334;19;20014;-86
2022/08/04 09:27:57;;;;;;;6.22;2.80;;;27.20;99.90;;;;;;7394455;19;20021;-86
2022/08/04 09:30:35;;;;;;;7.30;3.53;;;27.30;99.90;;;;;;7393412;19;20015;-86
2022/08/04 09:33:29;;;;;;;10.82;3.42;;;27.50;99.90;;;;;;7395260;19;20042;-85
2022/08/04 09:36:17;;;;;;;5.53;2.78;;;27.60;99.90;;;;;;7396072;19;20018;-85
2022/08/04 09:39:01;;;;;;;7.93;2.58;;;27.70;99.90;;;;;;7393315;19;20021;-85
2022/08/04 09:41:56;;;;;;;6.00;2.80;;;27.70;99.90;;;;;;7397048;19;20074;-84
2022/08/04 09:44:28;;;;;;;8.00;3.33;;;27.70;99.90;;;;;;7394802;19;20037;-87
2022/08/04 09:47:12;;;;;;;7.60;2.97;;;27.80;99.90;;;;;;7396550;19;20018;-86
2022/08/04 09:49:50;;;;;;;6.40;2.67;;;27.80;99.90;;;;;;7391567;19;20015;-87
2022/08/04 09:52:42;;;;;;;7.85;3.22;;;27.80;99.90;;;;;;7395084;19;20349;-87
2022/08/04 09:55:30;;;;;;;9.00;3.35;;;27.60;99.90;;;;;;7392008;19;20025;-82
2022/08/04 09:58:23;;;;;;;7.63;3.15;;;27.60;99.90;;;;;;7394535;19;20015;-86
2022/08/04 10:00:59;;;;;;;10.55;3.13;;;27.80;99.90;;;;;;7396923;19;20110;-88
2022/08/04 10:03:32;;;;;;;7.15;2.97;;;28.00;99.90;;;;;;7392807;19;20006;-87
2022/08/04 10:06:38;;;;;;;8.65;2.90;;;28.00;99.90;;;;;;7393094;19;20019;-83
2022/08/04 10:09:25;;;;;;;8.10;3.17;;;28.20;99.90;;;;;;7391302;19;20022;-83
2022/08/04 10:12:26;;;;;;;8.75;3.22;;;28.20;99.90;;;;;;7392077;19;20018;-82
2022/08/04 10:15:03;;;;;;;9.38;2.78;;;28.20;99.90;;;;;;7389434;19;20039;-83
2022/08/04 10:17:55;;;;;;;9.73;3.05;;;28.40;99.90;;;;;;7394869;19;20010;-84
2022/08/04 10:20:56;;;;;;;14.77;3.83;;;28.40;99.90;;;;;;7394359;19;20018;-83
2022/08/04 10:23:47;;;;;;;8.88;3.28;;;28.30;99.90;;;;;;7387377;19;20010;-82
2022/08/04 10:26:31;;;;;;;6.38;2.67;;;28.30;99.90;;;;;;7390388;19;20034;-82
2022/08/04 10:29:01;;;;;;;6.88;2.72;;;28.20;99.90;;;;;;7390061;19;20024;-83
2022/08/04 10:31:35;;;;;;;9.93;2.92;;;28.20;99.90;;;;;;7389561;19;20017;-83
2022/08/04 10:34:16;;;;;;;8.35;2.88;;;28.20;99.90;;;;;;7391128;19;20021;-83
2022/08/04 10:36:58;;;;;;;5.72;2.38;;;28.10;99.90;;;;;;7390871;19;20051;-84
2022/08/04 10:40:35;;;;;;;6.30;2.70;;;28.30;99.90;;;;;;7393627;19;20018;-83
2022/08/04 10:42:36;;;;;;;9.25;3.08;;;28.40;99.90;;;;;;7389946;19;20507;-82
2022/08/04 10:45:22;;;;;;;6.95;2.83;;;28.40;99.90;;;;;;7392482;19;20018;-86
2022/08/04 10:48:27;;;;;;;7.20;2.80;;;28.60;99.90;;;;;;7390544;19;20364;-88
2022/08/04 10:51:22;;;;;;;7.40;2.88;;;28.80;99.90;;;;;;7387119;19;20052;-87
2022/08/04 10:53:56;;;;;;;7.32;2.75;;;28.70;99.90;;;;;;7389947;19;20033;-86
2022/08/04 10:56:40;;;;;;;7.25;2.85;;;28.70;99.90;;;;;;7391076;19;20015;-87
2022/08/04 10:59:20;;;;;;;6.97;3.78;;;28.70;99.90;;;;;;7390526;19;20090;-83
2022/08/04 11:01:49;;;;;;;7.65;3.15;;;28.80;99.90;;;;;;7393585;19;20010;-81
2022/08/04 11:04:35;;;;;;;9.73;4.78;;;28.90;99.90;;;;;;7399948;19;20018;-83
2022/08/04 11:07:01;;;;;;;8.80;4.53;;;29.00;99.90;;;;;;7397886;19;20095;-83
2022/08/04 11:09:29;;;;;;;8.98;4.80;;;29.00;99.90;;;;;;7396918;19;20382;-83
2022/08/04 11:12:08;;;;;;;10.32;5.82;;;29.10;99.90;;;;;;7397660;19;20014;-84
2022/08/04 11:14:55;;;;;;;9.77;4.53;;;29.10;99.90;;;;;;7396693;19;20018;-84
2022/08/04 11:17:28;;;;;;;17.60;5.28;;;29.20;99.90;;;;;;7396543;19;20014;-85
2022/08/04 11:20:15;;;;;;;12.52;4.55;;;29.20;99.90;;;;;;7394482;19;20011;-85
2022/08/04 11:22:54;;;;;;;10.40;4.53;;;29.10;99.90;;;;;;7397262;19;20350;-82
2022/08/04 11:25:24;;;;;;;9.55;3.70;;;29.20;99.90;;;;;;7399892;19;20018;-85
2022/08/04 11:28:23;;;;;;;10.20;4.53;;;29.10;99.90;;;;;;7396286;19;20115;-82
2022/08/04 11:31:18;;;;;;;10.30;3.80;;;29.20;99.90;;;;;;7394467;19;20413;-80
2022/08/04 11:34:23;;;;;;;8.48;3.95;;;29.40;99.90;;;;;;7399389;19;20479;-85
2022/08/04 11:37:12;;;;;;;6.70;3.63;;;29.50;99.90;;;;;;7394460;19;20069;-84
2022/08/04 11:40:06;;;;;;;7.03;4.15;;;29.20;99.90;;;;;;7396740;19;20369;-86
2022/08/04 11:42:40;;;;;;;6.93;4.43;;;29.10;99.90;;;;;;7395489;19;20031;-86
2022/08/04 11:45:23;;;;;;;8.52;3.72;;;29.10;99.90;;;;;;7393596;19;20051;-84
2022/08/04 11:48:10;;;;;;;7.25;4.07;;;29.10;99.90;;;;;;7399468;19;20020;-87
2022/08/04 11:50:42;;;;;;;7.80;3.58;;;28.90;99.90;;;;;;7395415;19;20010;-86
2022/08/04 11:53:15;;;;;;;10.45;3.67;;;28.90;99.90;;;;;;7397196;19;20042;-86
2022/08/04 11:55:44;;;;;;;7.53;3.45;;;28.90;99.90;;;;;;7398484;19;20025;-85
2022/08/04 11:58:10;;;;;;;6.63;2.78;;;28.90;99.90;;;;;;7398173;19;20043;-84
2022/08/04 12:00:41;;;;;;;5.32;2.70;;;28.80;99.90;;;;;;7396651;19;20022;-84
2022/08/04 12:03:25;;;;;;;5.95;3.60;;;28.80;99.90;;;;;;7396128;19;20348;-84
2022/08/04 12:05:57;;;;;;;12.18;3.47;;;28.80;99.90;;;;;;7395069;19;20027;-85
2022/08/04 12:08:47;;;;;;;6.25;2.85;;;28.70;99.90;;;;;;7393727;19;20368;-85
2022/08/04 12:11:33;;;;;;;7.88;2.88;;;28.70;99.90;;;;;;7394345;19;20554;-85
2022/08/04 12:14:27;;;;;;;6.80;2.83;;;28.60;99.90;;;;;;7393311;19;20496;-84
2022/08/04 12:17:01;;;;;;;4.50;2.85;;;28.60;99.90;;;;;;7397108;19;20022;-85
2022/08/04 12:19:29;;;;;;;9.68;3.08;;;28.40;99.90;;;;;;7398041;19;20519;-85
2022/08/04 12:22:03;;;;;;;7.57;3.13;;;28.30;99.90;;;;;;7395901;19;20015;-85
2022/08/04 12:24:47;;;;;;;7.22;2.47;;;28.30;99.90;;;;;;7400416;19;20408;-85
2022/08/04 12:27:26;;;;;;;9.07;2.47;;;28.20;99.90;;;;;;7397845;19;20340;-85
2022/08/04 12:29:54;;;;;;;9.25;3.08;;;28.20;99.90;;;;;;7395557;19;20173;-85
2022/08/04 12:32:42;;;;;;;9.73;3.22;;;28.00;99.90;;;;;;7396416;19;20022;-86
2022/08/04 12:35:20;;;;;;;8.82;3.00;;;27.90;99.90;;;;;;7399152;19;20094;-85
2022/08/04 12:38:03;;;;;;;10.02;3.33;;;27.80;99.90;;;;;;7397507;19;20014;-85
2022/08/04 12:40:47;;;;;;;5.78;2.33;;;27.80;99.90;;;;;;7393810;19;20438;-85
2022/08/04 12:43:37;;;;;;;6.82;2.88;;;27.70;99.90;;;;;;7395079;19;20002;-85
2022/08/04 12:46:06;;;;;;;8.88;3.20;;;27.70;99.90;;;;;;7395026;19;20015;-85
2022/08/04 12:48:34;;;;;;;6.10;2.78;;;27.70;99.90;;;;;;7396625;19;20023;-84
2022/08/04 12:51:00;;;;;;;8.27;2.65;;;27.60;99.90;;;;;;7393673;19;20006;-85
2022/08/04 12:53:35;;;;;;;7.43;2.65;;;27.50;99.90;;;;;;7397122;19;20026;-85
2022/08/04 12:56:03;;;;;;;3.47;2.40;;;27.40;99.90;;;;;;7395187;19;20023;-85
2022/08/04 12:58:35;;;;;;;4.28;2.70;;;27.30;99.90;;;;;;7395770;19;20011;-86
2022/08/04 13:01:22;;;;;;;4.85;2.90;;;27.20;99.90;;;;;;7398072;19;20487;-85
2022/08/04 13:04:17;;;;;;;4.43;2.53;;;27.10;99.90;;;;;;7392140;19;20017;-86
2022/08/04 13:06:44;;;;;;;2.72;1.80;;;27.00;99.90;;;;;;7392428;19;20006;-86
2022/08/04 13:09:18;;;;;;;3.50;2.20;;;26.90;99.90;;;;;;7396052;19;20403;-85
2022/08/04 13:11:51;;;;;;;4.30;2.03;;;26.80;99.90;;;;;;7395461;19;20015;-86
2022/08/04 13:14:18;;;;;;;5.80;1.80;;;26.70;99.90;;;;;;7394114;19;20390;-86
2022/08/04 13:16:44;;;;;;;4.82;2.00;;;26.60;99.90;;;;;;7391646;19;20019;-86
2022/08/04 13:19:11;;;;;;;5.70;1.80;;;26.40;99.90;;;;;;7394475;19;20025;-86
2022/08/04 13:21:44;;;;;;;4.10;2.85;;;26.30;99.90;;;;;;7393370;19;20420;-85
2022/08/04 13:24:15;;;;;;;4.13;1.83;;;26.10;99.90;;;;;;7396203;19;20015;-84
2022/08/04 13:27:07;;;;;;;3.85;2.47;;;26.00;99.90;;;;;;7393044;19;20349;-85
2022/08/04 13:29:39;;;;;;;4.07;2.25;;;25.90;99.90;;;;;;7388166;19;20089;-85
2022/08/04 13:32:06;;;;;;;4.43;2.33;;;25.80;99.90;;;;;;7389699;19;20030;-84